Time;durP1;ratioP1;P1;durP2;ratioP2;P2;SDS_P1;SDS_P2;PMS_P1;PMS_P2;Temp;Humidity;BMP_temperature;BMP_pressure;BME280_temperature;BME280_humidity;BME280_pressure;Samples;Min_cycle;Max_cycle;Signal;HPM_P1;HPM_P2
2024/02/05 00:08:25;;;;;;;6.38;5.93;;;;;;;;;;6136990;23;20033;-96
2024/02/05 00:11:00;;;;;;;6.72;6.32;;;;;;;;;;6109338;23;20013;-96
2024/02/05 00:13:45;;;;;;;5.43;5.03;;;;;;;;;;6107790;23;20014;-96
2024/02/05 00:16:31;;;;;;;5.75;5.35;;;;;;;;;;6111977;23;20002;-95
2024/02/05 00:18:57;;;;;;;6.40;5.95;;;;;;;;;;6143481;23;20065;-91
2024/02/05 00:24:30;;;;;;;4.90;4.50;;;;;;;;;;6143410;23;20017;-94
2024/02/05 00:29:34;;;;;;;9.20;8.70;;;;;;;;;;6128864;23;20034;-90
2024/02/05 00:32:06;;;;;;;9.88;9.27;;;;;;;;;;6103959;23;20010;-95
2024/02/05 00:35:55;;;;;;;8.82;8.32;;;;;;;;;;6104733;23;20011;-96
2024/02/05 00:38:05;;;;;;;10.70;10.10;;;;;;;;;;6086743;23;20010;-96
2024/02/05 00:40:34;;;;;;;9.60;9.05;;;;;;;;;;6078440;23;20508;-96
2024/02/05 00:43:14;;;;;;;;;;;;;;;;;;;;;
2024/02/05 00:45:43;;;;;;;11.07;10.38;;;;;;;;;;6137907;23;20055;-96
2024/02/05 00:51:50;;;;;;;6.43;6.03;;;;;;;;;;5993999;23;20036;-96
2024/02/05 00:54:16;;;;;;;5.43;5.03;;;;;;;;;;6003268;23;20049;-94
2024/02/05 00:56:51;;;;;;;8.50;8.00;;;;;;;;;;6009344;23;20026;-89
2024/02/05 00:59:17;;;;;;;7.43;6.90;;;;;;;;;;5991720;23;20426;-96
2024/02/05 01:04:44;;;;;;;8.52;8.02;;;;;;;;;;6147211;23;20017;-89
2024/02/05 01:07:17;;;;;;;5.93;5.57;;;;;;;;;;6144819;23;20056;-96
2024/02/05 01:09:56;;;;;;;5.60;5.22;;;;;;;;;;6132324;23;20339;-96
2024/02/05 01:18:30;;;;;;;5.22;4.90;;;;;;;;;;6088961;23;20049;-92
2024/02/05 01:20:58;;;;;;;6.00;5.50;;;;;;;;;;6132633;23;20010;-88
2024/02/05 01:23:43;;;;;;;6.20;5.80;;;;;;;;;;6133812;23;20053;-96
2024/02/05 01:26:09;;;;;;;5.80;5.40;;;;;;;;;;6113137;23;20022;-90
2024/02/05 01:29:00;;;;;;;5.93;5.57;;;;;;;;;;6120603;23;20006;-96
2024/02/05 01:36:47;;;;;;;6.93;6.53;;;;;;;;;;6171959;23;20053;-96
2024/02/05 01:39:18;;;;;;;6.65;6.25;;;;;;;;;;6171242;23;20030;-96
2024/02/05 01:44:48;;;;;;;6.93;6.53;;;;;;;;;;6174302;23;20026;-96
2024/02/05 01:47:17;;;;;;;5.97;5.57;;;;;;;;;;6131229;23;20026;-93
2024/02/05 02:08:53;;;;;;;9.18;8.68;;;;;;;;;;6195704;23;20047;-91
2024/02/05 02:18:25;;;;;;;;;;;;;;;;;;;;;
2024/02/05 02:27:11;;;;;;;6.22;5.72;;;;;;;;;;6078923;23;20026;-90
2024/02/05 02:30:26;;;;;;;7.57;6.93;;;;;;;;;;6056894;23;20013;-95
2024/02/05 02:33:08;;;;;;;6.07;5.60;;;;;;;;;;6056621;23;20052;-96
2024/02/05 02:35:52;;;;;;;6.82;6.35;;;;;;;;;;6169288;23;20016;-94
2024/02/05 02:38:26;;;;;;;4.85;4.55;;;;;;;;;;6188006;23;19989;-94
2024/02/05 02:41:12;;;;;;;5.63;5.30;;;;;;;;;;6175588;23;20084;-90
2024/02/05 02:43:42;;;;;;;6.30;5.88;;;;;;;;;;6167476;23;20037;-90
2024/02/05 02:46:11;;;;;;;8.30;7.80;;;;;;;;;;6165853;23;20024;-89
2024/02/05 02:48:59;;;;;;;4.40;4.10;;;;;;;;;;6165344;23;20001;-96
2024/02/05 02:54:18;;;;;;;7.03;6.63;;;;;;;;;;6187127;23;20044;-96
2024/02/05 02:56:53;;;;;;;5.72;5.40;;;;;;;;;;6188543;23;20025;-96
2024/02/05 02:59:25;;;;;;;6.28;5.93;;;;;;;;;;6163764;23;20009;-96
2024/02/05 03:02:03;;;;;;;5.00;4.70;;;;;;;;;;6164671;23;20016;-96
2024/02/05 03:04:48;;;;;;;5.38;5.07;;;;;;;;;;6191550;23;20076;-91
2024/02/05 03:07:26;;;;;;;5.05;4.70;;;;;;;;;;6178216;23;20982;-96
2024/02/05 03:10:00;;;;;;;7.65;7.10;;;;;;;;;;6166427;23;20032;-96
2024/02/05 03:12:35;;;;;;;4.30;4.00;;;;;;;;;;6165032;23;20414;-96
2024/02/05 03:15:08;;;;;;;4.95;4.65;;;;;;;;;;6165346;23;20442;-96
2024/02/05 03:17:37;;;;;;;6.07;5.67;;;;;;;;;;6164784;23;20076;-90
2024/02/05 03:20:38;;;;;;;5.60;5.20;;;;;;;;;;6167061;23;20461;-96
2024/02/05 03:23:08;;;;;;;5.20;4.80;;;;;;;;;;6161278;23;20013;-96
2024/02/05 03:25:59;;;;;;;7.40;6.93;;;;;;;;;;6166353;23;20012;-95
2024/02/05 03:28:27;;;;;;;5.97;5.45;;;;;;;;;;6163953;23;20038;-89
2024/02/05 03:30:57;;;;;;;5.55;5.10;;;;;;;;;;6141311;23;20009;-96
2024/02/05 03:33:51;;;;;;;5.75;5.40;;;;;;;;;;6161957;23;20002;-96
2024/02/05 03:36:48;;;;;;;6.18;5.78;;;;;;;;;;6130983;23;20014;-92
2024/02/05 03:39:23;;;;;;;6.15;5.70;;;;;;;;;;6177042;23;20005;-88
2024/02/05 03:44:40;;;;;;;6.53;6.13;;;;;;;;;;6160972;23;20029;-96
2024/02/05 03:47:07;;;;;;;4.95;4.55;;;;;;;;;;6152465;23;20024;-96
2024/02/05 03:49:36;;;;;;;4.97;4.68;;;;;;;;;;6161690;23;20045;-96
2024/02/05 03:52:08;;;;;;;7.72;7.32;;;;;;;;;;6161864;23;20387;-96
2024/02/05 03:54:37;;;;;;;6.60;6.20;;;;;;;;;;6161395;23;20339;-91
2024/02/05 03:57:22;;;;;;;6.88;6.28;;;;;;;;;;6160088;23;20006;-96
2024/02/05 04:00:08;;;;;;;6.13;5.78;;;;;;;;;;6136204;23;20002;-90
2024/02/05 04:02:35;;;;;;;4.85;4.55;;;;;;;;;;6161377;23;20436;-95
2024/02/05 04:05:13;;;;;;;6.35;5.95;;;;;;;;;;6160617;23;20001;-96
2024/02/05 04:07:51;;;;;;;6.57;6.07;;;;;;;;;;6160625;23;20005;-96
2024/02/05 04:11:05;;;;;;;6.10;5.70;;;;;;;;;;6160689;23;20010;-96
2024/02/05 04:13:37;;;;;;;6.03;5.63;;;;;;;;;;6136690;23;20005;-96
2024/02/05 04:16:26;;;;;;;6.45;6.05;;;;;;;;;;6135646;23;20447;-96
2024/02/05 04:18:55;;;;;;;4.82;4.40;;;;;;;;;;6143607;23;20037;-93
2024/02/05 04:21:29;;;;;;;5.50;5.07;;;;;;;;;;6159119;23;19993;-95
2024/02/05 04:23:55;;;;;;;5.50;5.00;;;;;;;;;;6153488;23;20006;-88
2024/02/05 04:26:26;;;;;;;4.97;4.68;;;;;;;;;;6134824;23;20017;-93
2024/02/05 04:28:52;;;;;;;4.05;3.75;;;;;;;;;;6137331;23;20002;-90
2024/02/05 04:31:27;;;;;;;5.50;5.20;;;;;;;;;;6137305;23;20009;-96
2024/02/05 04:36:40;;;;;;;5.93;5.53;;;;;;;;;;6162153;23;20020;-96
2024/02/05 04:39:29;;;;;;;6.05;5.68;;;;;;;;;;6078817;23;20023;-96
2024/02/05 04:41:58;;;;;;;6.65;6.25;;;;;;;;;;6082898;23;20018;-88
2024/02/05 04:44:27;;;;;;;3.75;3.55;;;;;;;;;;6110172;23;20093;-96
2024/02/05 04:47:04;;;;;;;5.30;4.90;;;;;;;;;;6112790;23;20018;-96
2024/02/05 04:55:41;;;;;;;4.22;3.88;;;;;;;;;;6165533;23;20399;-96
2024/02/05 05:01:06;;;;;;;4.55;4.25;;;;;;;;;;6136491;23;20026;-95
2024/02/05 05:03:36;;;;;;;5.80;5.50;;;;;;;;;;6135679;23;20006;-96
2024/02/05 05:06:36;;;;;;;5.13;4.78;;;;;;;;;;6134862;23;20351;-94
2024/02/05 05:09:02;;;;;;;4.15;3.85;;;;;;;;;;6109978;23;20068;-90
2024/02/05 05:11:31;;;;;;;5.20;4.88;;;;;;;;;;6135453;23;20009;-96
2024/02/05 05:14:01;;;;;;;4.30;4.00;;;;;;;;;;6137229;23;20033;-96
2024/02/05 05:16:43;;;;;;;5.00;4.60;;;;;;;;;;6136938;23;20014;-92
2024/02/05 05:25:27;;;;;;;4.80;4.50;;;;;;;;;;6138486;23;20040;-91
2024/02/05 05:30:49;;;;;;;4.72;4.43;;;;;;;;;;6136651;23;20092;-96
2024/02/05 05:33:21;;;;;;;4.53;4.18;;;;;;;;;;6114985;23;20069;-96
2024/02/05 05:36:00;;;;;;;5.15;4.75;;;;;;;;;;6116275;23;20073;-96
2024/02/05 05:38:27;;;;;;;4.88;4.57;;;;;;;;;;6115399;23;20006;-90
2024/02/05 05:41:05;;;;;;;4.05;3.75;;;;;;;;;;6115654;23;19993;-96
2024/02/05 05:43:53;;;;;;;3.75;3.55;;;;;;;;;;6110463;23;20032;-89
2024/02/05 05:46:27;;;;;;;4.00;3.72;;;;;;;;;;6138592;23;20037;-96
2024/02/05 05:49:09;;;;;;;5.15;4.85;;;;;;;;;;6138758;23;20006;-96
2024/02/05 05:51:38;;;;;;;4.05;3.75;;;;;;;;;;6136505;23;20085;-96
2024/02/05 05:54:04;;;;;;;3.40;3.17;;;;;;;;;;6139200;23;20026;-89
2024/02/05 05:59:16;;;;;;;4.13;3.83;;;;;;;;;;6152643;23;20354;-96
2024/02/05 06:01:52;;;;;;;4.90;3.95;;;;;;;;;;6146331;23;20010;-96
2024/02/05 06:04:18;;;;;;;3.40;3.20;;;;;;;;;;6152084;23;20000;-96
2024/02/05 06:09:22;;;;;;;3.13;2.92;;;;;;;;;;6177961;23;20017;-89
2024/02/05 06:14:29;;;;;;;3.60;3.30;;;;;;;;;;6144134;23;20018;-96
2024/02/05 06:17:30;;;;;;;3.95;3.65;;;;;;;;;;6114639;23;20006;-96
2024/02/05 06:20:05;;;;;;;3.75;3.45;;;;;;;;;;6091307;23;20013;-96
2024/02/05 06:25:52;;;;;;;2.90;2.70;;;;;;;;;;5993730;24;20080;-95
2024/02/05 06:28:24;;;;;;;3.10;2.90;;;;;;;;;;5969788;24;20016;-96
2024/02/05 06:39:05;;;;;;;3.95;3.75;;;;;;;;;;6174791;23;20062;-94
2024/02/05 06:49:26;;;;;;;3.35;3.05;;;;;;;;;;6129115;23;20108;-88
2024/02/05 06:54:30;;;;;;;3.35;3.13;;;;;;;;;;6132607;23;20022;-89
2024/02/05 07:05:29;;;;;;;3.47;3.28;;;;;;;;;;6113630;23;20025;-91
2024/02/05 07:08:12;;;;;;;4.20;3.90;;;;;;;;;;6083186;23;20006;-96
2024/02/05 07:13:42;;;;;;;4.80;4.50;;;;;;;;;;6113080;23;20030;-96
2024/02/05 07:16:22;;;;;;;5.05;4.65;;;;;;;;;;6088898;23;20050;-90
2024/02/05 07:18:58;;;;;;;5.18;4.88;;;;;;;;;;6085917;23;20018;-96
2024/02/05 07:24:27;;;;;;;5.07;4.78;;;;;;;;;;6109362;23;20352;-89
2024/02/05 07:26:56;;;;;;;6.75;6.35;;;;;;;;;;6112264;23;20010;-96
2024/02/05 07:29:28;;;;;;;6.28;5.88;;;;;;;;;;6084989;23;20017;-96
2024/02/05 07:31:55;;;;;;;7.97;7.47;;;;;;;;;;6086784;23;20009;-92
2024/02/05 07:34:33;;;;;;;7.35;6.85;;;;;;;;;;6110627;23;20069;-91
2024/02/05 07:37:11;;;;;;;8.77;8.25;;;;;;;;;;6111804;23;20009;-89
2024/02/05 07:39:49;;;;;;;9.38;8.88;;;;;;;;;;6081395;23;20021;-96
2024/02/05 07:42:31;;;;;;;7.45;7.05;;;;;;;;;;6088547;23;20073;-96
2024/02/05 07:45:00;;;;;;;9.65;9.07;;;;;;;;;;6139190;23;20078;-92
2024/02/05 07:47:26;;;;;;;9.10;8.60;;;;;;;;;;6144765;23;20004;-93
2024/02/05 07:50:05;;;;;;;12.00;10.95;;;;;;;;;;6160822;23;20001;-95
2024/02/05 07:52:31;;;;;;;10.10;9.52;;;;;;;;;;6149265;23;20091;-90
2024/02/05 07:55:06;;;;;;;11.13;10.15;;;;;;;;;;6137750;23;20006;-89
2024/02/05 07:57:39;;;;;;;10.32;9.73;;;;;;;;;;6141775;23;20061;-96
2024/02/05 08:00:05;;;;;;;11.77;11.13;;;;;;;;;;6122702;23;20103;-89
2024/02/05 08:02:33;;;;;;;13.02;12.32;;;;;;;;;;6174959;23;20016;-89
2024/02/05 08:05:12;;;;;;;11.35;10.65;;;;;;;;;;6200337;23;20001;-95
2024/02/05 08:13:18;;;;;;;11.82;11.10;;;;;;;;;;6112531;23;20033;-92
2024/02/05 08:16:08;;;;;;;13.95;13.18;;;;;;;;;;6082075;23;20013;-95
2024/02/05 08:19:09;;;;;;;;;;;;;;;;;;;;;
2024/02/05 08:24:26;;;;;;;11.93;11.30;;;;;;;;;;6132102;23;20022;-90
2024/02/05 08:38:15;;;;;;;14.07;13.27;;;;;;;;;;6126591;23;20025;-96
2024/02/05 08:46:37;;;;;;;14.55;13.68;;;;;;;;;;6217945;23;20033;-93
2024/02/05 08:49:32;;;;;;;;;;;;;;;;;;;;;
2024/02/05 08:52:23;;;;;;;;;;;;;;;;;;;;;
2024/02/05 08:57:56;;;;;;;15.52;14.65;;;;;;;;;;6159268;23;20064;-95
2024/02/05 09:06:25;;;;;;;13.25;12.32;;;;;;;;;;6109658;23;20033;-95
2024/02/05 09:09:09;;;;;;;17.52;16.63;;;;;;;;;;6164087;23;20009;-95
2024/02/05 09:29:07;;;;;;;14.40;13.65;;;;;;;;;;6158402;23;20451;-92
2024/02/05 09:31:33;;;;;;;16.23;15.27;;;;;;;;;;6132479;23;20002;-90
2024/02/05 09:55:37;;;;;;;16.48;15.55;;;;;;;;;;6092878;23;20272;31
2024/02/05 10:21:28;;;;;;;16.83;15.93;;;;;;;;;;6186313;23;20044;-96
2024/02/05 11:00:15;;;;;;;13.07;12.30;;;;;;;;;;6130162;23;20024;-92
2024/02/05 11:27:58;;;;;;;12.70;12.00;;;;;;;;;;6096924;23;20018;-96
2024/02/05 14:08:37;;;;;;;17.33;16.23;;;;;;;;;;6136730;23;20066;-90
2024/02/05 14:11:06;;;;;;;19.23;17.98;;;;;;;;;;6074278;23;20077;-90
2024/02/05 14:13:38;;;;;;;12.05;10.93;;;;;;;;;;6100300;23;20333;-92
2024/02/05 14:19:09;;;;;;;17.10;15.70;;;;;;;;;;6128603;23;20022;-90
2024/02/05 14:24:08;;;;;;;15.93;14.68;;;;;;;;;;6188035;23;20031;-89
2024/02/05 14:26:34;;;;;;;16.95;15.65;;;;;;;;;;6195194;23;20013;-89
2024/02/05 14:32:14;;;;;;;14.38;13.27;;;;;;;;;;6192308;23;20063;-90
2024/02/05 14:40:56;;;;;;;12.38;11.25;;;;;;;;;;6046632;23;20049;-96
2024/02/05 14:44:07;;;;;;;;;;;;;;;;;;;;;
2024/02/05 14:46:33;;;;;;;15.18;14.15;;;;;;;;;;5956153;24;20096;-89
2024/02/05 14:49:35;;;;;;;12.93;11.05;;;;;;;;;;5933246;24;20034;-89
2024/02/05 14:52:13;;;;;;;12.13;11.32;;;;;;;;;;5906014;24;20005;-89
2024/02/05 14:54:42;;;;;;;14.20;13.07;;;;;;;;;;5916032;24;20077;-89
2024/02/05 14:57:08;;;;;;;12.32;11.27;;;;;;;;;;5929496;24;19996;-90
2024/02/05 14:59:34;;;;;;;12.43;11.52;;;;;;;;;;6056481;23;20067;-92
2024/02/05 15:02:03;;;;;;;13.73;12.65;;;;;;;;;;6060733;23;20041;-90
2024/02/05 15:04:41;;;;;;;12.77;11.88;;;;;;;;;;6134287;23;20032;-96
2024/02/05 15:07:10;;;;;;;13.07;11.98;;;;;;;;;;6128191;23;20014;-87
2024/02/05 15:09:39;;;;;;;13.45;12.55;;;;;;;;;;6129355;23;20451;-93
2024/02/05 15:12:25;;;;;;;14.18;13.10;;;;;;;;;;6127605;23;20006;-91
2024/02/05 15:14:55;;;;;;;9.93;9.13;;;;;;;;;;6103852;23;20014;-89
2024/02/05 15:17:21;;;;;;;11.63;10.57;;;;;;;;;;6103940;23;20028;-88
2024/02/05 15:26:20;;;;;;;9.52;8.20;;;;;;;;;;6124250;23;20030;-95
2024/02/05 15:28:47;;;;;;;9.00;8.40;;;;;;;;;;6101278;23;20007;-89
2024/02/05 15:32:05;;;;;;;12.38;11.35;;;;;;;;;;6098537;23;20015;-92
2024/02/05 15:34:18;;;;;;;9.30;8.63;;;;;;;;;;6084114;23;20459;-90
2024/02/05 15:36:44;;;;;;;11.90;10.38;;;;;;;;;;6074641;23;20018;-87
2024/02/05 15:39:21;;;;;;;;;;;;;;;;;;;;;
2024/02/05 15:42:14;;;;;;;11.23;10.23;;;;;;;;;;6012668;23;20078;-92
2024/02/05 15:45:04;;;;;;;8.40;7.70;;;;;;;;;;5992519;23;20019;-89
2024/02/05 15:47:40;;;;;;;9.70;8.80;;;;;;;;;;6076238;23;20098;-90
2024/02/05 15:50:17;;;;;;;9.98;7.57;;;;;;;;;;6100315;23;20007;-92
2024/02/05 16:02:18;;;;;;;9.82;6.45;;;;;;;;;;6191632;23;20028;-93
2024/02/05 16:27:36;;;;;;;8.30;7.60;;;;;;;;;;6190598;23;20031;-89
2024/02/05 16:42:06;;;;;;;7.15;6.43;;;;;;;;;;6138905;23;20852;-89
2024/02/05 16:47:08;;;;;;;12.13;7.97;;;;;;;;;;6110484;23;20054;-91
2024/02/05 16:49:34;;;;;;;7.63;7.03;;;;;;;;;;6139242;23;20010;-91
2024/02/05 17:22:48;;;;;;;8.90;8.02;;;;;;;;;;6223800;23;20081;-94
2024/02/05 17:25:14;;;;;;;10.10;7.05;;;;;;;;;;6197891;23;20001;-92
2024/02/05 17:35:28;;;;;;;7.57;6.68;;;;;;;;;;6137222;23;20088;-90
2024/02/05 17:51:38;;;;;;;7.65;7.00;;;;;;;;;;6102562;23;20029;-89
2024/02/05 18:06:07;;;;;;;8.65;7.93;;;;;;;;;;6109517;23;20026;-88
2024/02/05 18:09:06;;;;;;;7.65;7.05;;;;;;;;;;6178833;23;20017;-96
2024/02/05 18:11:32;;;;;;;8.82;6.80;;;;;;;;;;6144828;23;20073;-89
2024/02/05 18:17:03;;;;;;;8.85;7.93;;;;;;;;;;6165243;23;20040;-88
2024/02/05 18:19:29;;;;;;;9.20;7.88;;;;;;;;;;6142663;23;20006;-87
2024/02/05 18:24:27;;;;;;;12.13;7.78;;;;;;;;;;6137808;23;20022;-88
2024/02/05 18:27:07;;;;;;;8.23;7.25;;;;;;;;;;6147247;23;20025;-87
2024/02/05 18:29:44;;;;;;;7.72;6.97;;;;;;;;;;6141093;23;20770;31
2024/02/05 18:32:13;;;;;;;9.07;6.75;;;;;;;;;;6118192;23;20018;-89
2024/02/05 18:37:15;;;;;;;9.10;8.13;;;;;;;;;;6104608;23;20051;-91
2024/02/05 18:44:53;;;;;;;8.30;7.13;;;;;;;;;;6124893;23;20897;-87
2024/02/05 18:50:01;;;;;;;9.55;8.63;;;;;;;;;;6158860;23;20035;-91
2024/02/05 19:00:23;;;;;;;8.25;7.13;;;;;;;;;;6171125;23;20068;-89
2024/02/05 19:02:49;;;;;;;;;;;;;;;;;;6146212;23;20025;-89
2024/02/05 19:05:18;;;;;;;7.47;6.28;;;;;;;;;;6110151;23;19944;-88
2024/02/05 19:19:34;;;;;;;9.20;8.00;;;;;;;;;;6118908;23;20053;-88
2024/02/05 19:29:47;;;;;;;11.43;9.82;;;;;;;;;;6045221;23;20015;-89
2024/02/05 22:13:36;;;;;;;6.20;4.80;;;;;;;;;;6074758;23;20017;-90
